Terminal Aerodrome Forecast
Issued by NWS Sterling, VA

Home | Current Version | Previous Version | Text Only | Print | Product List | Glossary On
Versions: 1 2 3 4 5 6 7 8 9 10 11 12 13 14 15 16
000
FTUS41 KLWX 272300
TAFCHO
TAF
KCHO 272334Z 2800/2824 31007KT P6SM BKN050
     FM280800 VRB05KT P6SM FEW250
     FM281600 29007KT P6SM SCT250
     FM282000 VRB03KT P6SM SCT090=

USA.gov is the U.S. government's official web portal to all federal, state and local government web resources and services.